Time;durP1;ratioP1;P1;durP2;ratioP2;P2;SDS_P1;SDS_P2;PMS_P1;PMS_P2;Temp;Humidity;BMP_temperature;BMP_pressure;BME280_temperature;BME280_humidity;BME280_pressure;Samples;Min_cycle;Max_cycle;Signal;HPM_P1;HPM_P2
2022/03/13 00:00:39;;;;;;;;;;;;;;;16.92;33.42;101981.13;4939371;29;886;-49
2022/03/13 00:03:06;;;;;;;;;;;;;;;16.92;33.56;101981.13;4939553;29;875;-47
2022/03/13 00:05:33;;;;;;;;;;;;;;;17.40;32.56;101985.28;4939639;29;842;-51
2022/03/13 00:07:58;;;;;;;;;;;;;;;17.85;31.95;101977.16;4939603;29;774;-52
2022/03/13 00:10:27;;;;;;;;;;;;;;;17.71;32.11;101969.25;4938052;29;783;-50
2022/03/13 00:12:53;;;;;;;;;;;;;;;17.18;32.93;101967.84;4942246;28;953;-51
2022/03/13 00:15:23;;;;;;;;;;;;;;;16.88;33.31;101974.44;4939762;29;846;-50
2022/03/13 00:17:49;;;;;;;;;;;;;;;17.27;32.89;101964.44;4943107;28;1989;-51
2022/03/13 00:20:14;;;;;;;;;;;;;;;17.73;32.00;101964.34;4938990;29;1536;-51
2022/03/13 00:22:41;;;;;;;;;;;;;;;17.89;31.74;101961.78;4937914;29;1444;-48
2022/03/13 00:25:10;;;;;;;;;;;;;;;17.28;32.79;101959.78;4945472;29;931;-49
2022/03/13 00:27:38;;;;;;;;;;;;;;;17.22;32.84;101952.53;4939143;28;818;-52
2022/03/13 00:30:04;;;;;;;;;;;;;;;17.01;33.22;101956.84;4939379;29;916;-48
2022/03/13 00:32:29;;;;;;;;;;;;;;;17.14;32.74;101959.28;4942001;29;1001;-47
2022/03/13 00:34:55;;;;;;;;;;;;;;;17.65;32.26;101959.25;4938929;29;1021;-48
2022/03/13 00:37:20;;;;;;;;;;;;;;;17.89;31.79;101950.78;4942184;29;1902;-51
2022/03/13 00:39:49;;;;;;;;;;;;;;;17.60;32.21;101945.44;4939594;29;954;-50
2022/03/13 00:42:14;;;;;;;;;;;;;;;17.07;33.11;101944.88;4938988;29;801;-51
2022/03/13 00:44:40;;;;;;;;;;;;;;;16.94;33.42;101948.75;4942057;29;877;-50
2022/03/13 00:47:05;;;;;;;;;;;;;;;17.06;33.32;101941.25;4949873;29;788;-50
2022/03/13 00:49:31;;;;;;;;;;;;;;;17.84;31.67;101945.22;4942885;29;841;-48
2022/03/13 00:51:57;;;;;;;;;;;;;;;17.96;31.51;101948.72;4948637;29;865;-47
2022/03/13 00:54:22;;;;;;;;;;;;;;;17.44;32.36;101939.69;4942269;29;906;-51
2022/03/13 00:56:49;;;;;;;;;;;;;;;17.25;32.76;101935.53;4942440;29;1895;-48
2022/03/13 00:59:14;;;;;;;;;;;;;;;16.99;33.27;101939.78;4942645;29;743;-50
2022/03/13 01:01:40;;;;;;;;;;;;;;;17.13;32.96;101937.53;4948159;29;969;-52
2022/03/13 01:04:05;;;;;;;;;;;;;;;17.66;32.09;101944.41;4945096;29;762;-50
2022/03/13 01:06:31;;;;;;;;;;;;;;;17.99;31.49;101945.44;4942307;29;831;-52
2022/03/13 01:08:56;;;;;;;;;;;;;;;17.58;32.19;101947.59;4942264;29;1024;-51
2022/03/13 01:11:23;;;;;;;;;;;;;;;17.29;32.76;101942.19;4942509;29;820;-53
2022/03/13 01:13:48;;;;;;;;;;;;;;;16.97;33.10;101942.78;4941980;29;747;-48
2022/03/13 01:16:17;;;;;;;;;;;;;;;17.06;33.20;101952.25;4947691;29;800;-52
2022/03/13 01:18:47;;;;;;;;;;;;;;;17.66;32.17;101941.66;4942274;29;1915;-47
2022/03/13 01:21:13;;;;;;;;;;;;;;;17.51;32.37;101936.75;4942262;29;808;-49
2022/03/13 01:23:40;;;;;;;;;;;;;;;17.19;32.69;101937.34;4942090;29;862;-48
2022/03/13 01:26:24;;;;;;;;;;;;;;;17.00;33.35;101939.53;4942316;29;803;-47
2022/03/13 01:28:50;;;;;;;;;;;;;;;16.91;33.33;101941.00;4944358;29;795;-50
2022/03/13 01:31:16;;;;;;;;;;;;;;;17.15;32.96;101938.09;4943694;29;822;-52
2022/03/13 01:33:41;;;;;;;;;;;;;;;17.45;32.60;101938.59;4941118;29;1151;-51
2022/03/13 01:36:07;;;;;;;;;;;;;;;17.82;31.99;101928.13;4941563;29;850;-50
2022/03/13 01:38:32;;;;;;;;;;;;;;;17.96;31.58;101929.44;4941875;29;1915;-50
2022/03/13 01:40:58;;;;;;;;;;;;;;;17.64;32.20;101915.50;4943990;29;903;-50
2022/03/13 01:43:25;;;;;;;;;;;;;;;17.35;32.35;101921.09;4943466;29;878;-51
2022/03/13 01:45:51;;;;;;;;;;;;;;;17.10;32.91;101914.94;4944838;29;834;-51
2022/03/13 01:48:17;;;;;;;;;;;;;;;17.13;32.79;101910.06;4944547;29;846;-51
2022/03/13 01:50:42;;;;;;;;;;;;;;;17.13;32.89;101912.81;4941753;29;771;-52
2022/03/13 01:53:08;;;;;;;;;;;;;;;17.15;32.99;101922.44;4941769;29;894;-51
2022/03/13 01:55:33;;;;;;;;;;;;;;;17.14;32.95;101915.31;4942084;29;839;-49
2022/03/13 01:57:59;;;;;;;;;;;;;;;17.50;32.36;101926.03;4941418;29;2055;-52
2022/03/13 02:00:25;;;;;;;;;;;;;;;17.67;32.16;101928.75;4942234;29;870;-52
2022/03/13 02:02:50;;;;;;;;;;;;;;;17.81;31.62;101918.22;4944952;29;855;-51
2022/03/13 02:05:25;;;;;;;;;;;;;;;18.03;31.46;101919.09;4939797;29;1093;-51
2022/03/13 02:07:51;;;;;;;;;;;;;;;17.83;31.73;101918.81;4946897;29;965;-52
2022/03/13 02:10:16;;;;;;;;;;;;;;;17.32;32.53;101916.97;4941573;29;755;-48
2022/03/13 02:12:42;;;;;;;;;;;;;;;17.12;32.94;101913.88;4941415;29;850;-47
2022/03/13 02:15:08;;;;;;;;;;;;;;;17.09;32.81;101924.28;4943692;28;751;-48
2022/03/13 02:17:34;;;;;;;;;;;;;;;17.35;32.77;101919.22;4944099;29;1995;-50
2022/03/13 02:19:59;;;;;;;;;;;;;;;17.57;32.28;101918.41;4943132;29;743;-51
2022/03/13 02:22:25;;;;;;;;;;;;;;;17.79;31.90;101922.06;4941220;29;929;-51
2022/03/13 02:24:53;;;;;;;;;;;;;;;17.93;31.55;101919.78;4940925;29;851;-53
2022/03/13 02:27:20;;;;;;;;;;;;;;;17.58;31.87;101917.34;4941016;29;924;-51
2022/03/13 02:29:46;;;;;;;;;;;;;;;17.39;32.58;101914.03;4940942;29;794;-47
2022/03/13 02:32:11;;;;;;;;;;;;;;;17.16;32.79;101910.38;4952925;29;842;-46
2022/03/13 02:34:37;;;;;;;;;;;;;;;17.11;33.04;101913.06;4940755;29;1363;-47
2022/03/13 02:37:03;;;;;;;;;;;;;;;17.12;32.85;101909.19;4940623;28;1902;-50
2022/03/13 02:39:29;;;;;;;;;;;;;;;17.47;32.44;101899.84;4941053;29;839;-48
2022/03/13 02:41:55;;;;;;;;;;;;;;;17.61;32.14;101900.34;4959041;29;826;-49
2022/03/13 02:44:20;;;;;;;;;;;;;;;17.76;31.67;101896.97;4946542;28;910;-51
2022/03/13 02:46:45;;;;;;;;;;;;;;;17.70;31.91;101907.06;4947161;28;887;-48
2022/03/13 02:49:15;;;;;;;;;;;;;;;17.20;32.99;101897.78;4939824;29;723;-50
2022/03/13 02:51:42;;;;;;;;;;;;;;;17.06;32.89;101902.78;4940323;29;876;-49
2022/03/13 02:54:10;;;;;;;;;;;;;;;17.09;33.36;101904.22;4940654;29;735;-49
2022/03/13 02:56:36;;;;;;;;;;;;;;;17.61;32.19;101911.34;4939277;29;1981;-48
2022/03/13 02:59:01;;;;;;;;;;;;;;;17.71;32.18;101906.00;4944857;29;799;-53
2022/03/13 03:01:27;;;;;;;;;;;;;;;17.45;32.59;101902.03;4944383;29;778;-49
2022/03/13 03:03:52;;;;;;;;;;;;;;;17.13;32.90;101902.63;4940607;29;782;-50
2022/03/13 03:06:19;;;;;;;;;;;;;;;16.96;33.40;101902.63;4939844;29;823;-50
2022/03/13 03:08:44;;;;;;;;;;;;;;;17.10;33.32;101906.72;4940367;29;811;-50
2022/03/13 03:11:10;;;;;;;;;;;;;;;17.52;32.53;101890.88;4941195;29;911;-52
2022/03/13 03:13:35;;;;;;;;;;;;;;;17.74;32.07;101902.72;4940326;29;800;-51
2022/03/13 03:16:01;;;;;;;;;;;;;;;17.57;32.42;101896.41;4942138;29;838;-53
2022/03/13 03:18:26;;;;;;;;;;;;;;;17.09;33.18;101902.28;4940167;29;1911;-50
2022/03/13 03:20:52;;;;;;;;;;;;;;;16.82;33.63;101904.00;4940339;29;946;-50
2022/03/13 03:23:19;;;;;;;;;;;;;;;17.00;33.23;101903.81;4943930;29;843;-49
2022/03/13 03:25:44;;;;;;;;;;;;;;;17.45;32.68;101908.34;4940134;29;852;-52
2022/03/13 03:28:11;;;;;;;;;;;;;;;17.85;31.72;101897.34;4939548;29;916;-49
2022/03/13 03:30:38;;;;;;;;;;;;;;;17.39;32.31;101908.53;4939628;29;1184;-49
2022/03/13 03:33:03;;;;;;;;;;;;;;;16.91;33.45;101905.28;4944079;29;1091;-52
2022/03/13 03:35:30;;;;;;;;;;;;;;;16.83;33.41;101905.66;4940926;29;846;-50
2022/03/13 03:37:56;;;;;;;;;;;;;;;17.19;33.03;101900.78;4939877;29;1903;-48
2022/03/13 03:40:22;;;;;;;;;;;;;;;17.81;32.02;101904.44;4939485;29;934;-50
2022/03/13 03:42:47;;;;;;;;;;;;;;;17.41;32.46;101896.19;4939984;29;1081;-52
2022/03/13 03:45:13;;;;;;;;;;;;;;;16.98;33.23;101913.38;4939349;29;827;-52
2022/03/13 03:47:39;;;;;;;;;;;;;;;17.09;33.01;101910.53;4944556;28;970;-49
2022/03/13 03:50:04;;;;;;;;;;;;;;;17.25;32.86;101897.88;4943973;29;835;-48
2022/03/13 03:52:32;;;;;;;;;;;;;;;17.62;32.15;101911.06;4939535;29;851;-50
2022/03/13 03:54:58;;;;;;;;;;;;;;;17.85;31.95;101911.97;4939353;29;847;-48
2022/03/13 03:57:23;;;;;;;;;;;;;;;17.45;32.20;101913.03;4939907;29;1911;-50
2022/03/13 03:59:49;;;;;;;;;;;;;;;17.17;33.08;101913.97;4939694;29;767;-52
2022/03/13 04:02:14;;;;;;;;;;;;;;;16.93;33.24;101916.88;4941689;29;846;-52
2022/03/13 04:04:40;;;;;;;;;;;;;;;16.98;33.28;101914.19;4939357;29;815;-50
2022/03/13 04:07:06;;;;;;;;;;;;;;;17.61;32.32;101917.69;4939321;29;906;-52
2022/03/13 04:09:31;;;;;;;;;;;;;;;17.51;32.43;101917.50;4940069;29;748;-45
2022/03/13 04:11:57;;;;;;;;;;;;;;;17.05;33.04;101928.59;4939173;29;809;-50
2022/03/13 04:14:23;;;;;;;;;;;;;;;16.99;33.27;101921.38;4942839;29;791;-51
2022/03/13 04:16:48;;;;;;;;;;;;;;;17.23;32.95;101915.72;4947295;29;1914;-50
2022/03/13 04:19:14;;;;;;;;;;;;;;;17.80;32.21;101920.13;4941437;29;826;-48
2022/03/13 04:21:42;;;;;;;;;;;;;;;17.41;32.50;101918.19;4942731;29;993;-52
2022/03/13 04:24:08;;;;;;;;;;;;;;;16.87;33.53;101918.66;4942899;29;885;-51
2022/03/13 04:26:33;;;;;;;;;;;;;;;16.87;33.88;101923.31;4943888;29;858;-53
2022/03/13 04:28:58;;;;;;;;;;;;;;;17.23;32.99;101924.78;4943291;29;854;-54
2022/03/13 04:31:24;;;;;;;;;;;;;;;17.64;32.30;101921.81;4948877;29;883;-54
2022/03/13 04:33:51;;;;;;;;;;;;;;;17.49;32.33;101918.84;4943134;29;1129;-56
2022/03/13 04:36:26;;;;;;;;;;;;;;;17.09;33.01;101926.19;4942901;29;826;-53
2022/03/13 04:38:51;;;;;;;;;;;;;;;16.89;33.65;101922.00;4943284;29;1918;-53
2022/03/13 04:41:17;;;;;;;;;;;;;;;16.96;33.41;101929.25;4946477;29;734;-53
2022/03/13 04:43:43;;;;;;;;;;;;;;;17.38;32.72;101924.19;4943082;29;848;-55
2022/03/13 04:46:09;;;;;;;;;;;;;;;17.52;32.49;101923.88;4948006;29;878;-56
2022/03/13 04:48:35;;;;;;;;;;;;;;;17.34;32.59;101923.03;4961363;29;779;-54
2022/03/13 04:51:00;;;;;;;;;;;;;;;17.31;32.74;101920.78;4961204;29;770;-54
2022/03/13 04:53:26;;;;;;;;;;;;;;;17.46;32.71;101920.22;4960782;28;913;-54
2022/03/13 04:55:51;;;;;;;;;;;;;;;17.76;31.82;101927.22;4958197;28;1562;-52
2022/03/13 04:58:18;;;;;;;;;;;;;;;17.39;32.77;101928.63;4945146;28;1986;-50
2022/03/13 05:00:50;;;;;;;;;;;;;;;16.92;33.39;101921.50;4944471;29;919;-52
2022/03/13 05:03:15;;;;;;;;;;;;;;;16.65;33.95;101921.28;4940801;29;975;-53
2022/03/13 05:05:41;;;;;;;;;;;;;;;16.95;33.22;101936.69;4944653;29;782;-52
2022/03/13 05:08:13;;;;;;;;;;;;;;;17.57;32.23;101935.78;4940853;29;830;-51
2022/03/13 05:10:39;;;;;;;;;;;;;;;17.48;32.36;101936.44;4941413;29;795;-53
2022/03/13 05:13:05;;;;;;;;;;;;;;;17.28;32.62;101935.88;4941479;29;828;-54
2022/03/13 05:15:30;;;;;;;;;;;;;;;16.95;33.18;101931.19;4941577;29;862;-51
2022/03/13 05:17:56;;;;;;;;;;;;;;;16.92;33.30;101935.25;4948499;28;1983;-53
2022/03/13 05:20:21;;;;;;;;;;;;;;;17.05;33.04;101928.59;4942037;29;776;-50
2022/03/13 05:22:47;;;;;;;;;;;;;;;17.66;32.17;101938.91;4941796;29;781;-53
2022/03/13 05:25:13;;;;;;;;;;;;;;;17.69;32.12;101941.16;4942188;29;838;-54
2022/03/13 05:27:39;;;;;;;;;;;;;;;17.36;32.42;101931.88;4960457;29;759;-54
2022/03/13 05:30:07;;;;;;;;;;;;;;;17.28;32.40;101924.03;4959724;28;857;-54
2022/03/13 05:32:34;;;;;;;;;;;;;;;17.13;32.80;101932.03;4947563;29;995;-53
2022/03/13 05:34:59;;;;;;;;;;;;;;;17.44;32.25;101931.44;4941889;29;1074;-54
2022/03/13 05:37:25;;;;;;;;;;;;;;;17.81;31.90;101932.81;4942424;29;1910;-52
2022/03/13 05:39:52;;;;;;;;;;;;;;;17.68;32.06;101928.47;4941995;29;768;-54
2022/03/13 05:42:18;;;;;;;;;;;;;;;17.30;32.53;101940.28;4942233;29;823;-53
2022/03/13 05:44:43;;;;;;;;;;;;;;;16.98;33.21;101941.66;4947383;29;764;-50
2022/03/13 05:47:08;;;;;;;;;;;;;;;16.98;33.03;101941.66;4944853;29;954;-54
2022/03/13 05:49:34;;;;;;;;;;;;;;;17.13;33.10;101937.53;4941873;29;914;-53
2022/03/13 05:52:00;;;;;;;;;;;;;;;17.49;32.31;101940.84;4941629;29;1017;-54
2022/03/13 05:54:25;;;;;;;;;;;;;;;17.86;31.87;101952.13;4941843;29;747;-53
2022/03/13 05:56:52;;;;;;;;;;;;;;;17.99;31.56;101950.94;4944011;29;1914;-51
2022/03/13 05:59:17;;;;;;;;;;;;;;;17.97;31.54;101949.56;4941705;29;835;-51
2022/03/13 06:01:43;;;;;;;;;;;;;;;17.49;32.13;101951.84;4952064;29;905;-54
2022/03/13 06:04:08;;;;;;;;;;;;;;;17.31;32.45;101959.28;4959732;29;751;-54
2022/03/13 06:06:34;;;;;;;;;;;;;;;17.19;32.79;101953.03;4959984;28;783;-53
2022/03/13 06:09:00;;;;;;;;;;;;;;;17.00;33.09;101955.16;4957367;28;831;-54
2022/03/13 06:11:25;;;;;;;;;;;;;;;17.15;32.88;101952.69;4941411;29;747;-53
2022/03/13 06:13:51;;;;;;;;;;;;;;;17.55;32.11;101961.84;4942097;29;897;-54
2022/03/13 06:16:16;;;;;;;;;;;;;;;17.86;31.70;101954.88;4951960;28;826;-53
2022/03/13 06:18:42;;;;;;;;;;;;;;;18.00;31.54;101969.13;4941153;29;1981;-54
2022/03/13 06:21:07;;;;;;;;;;;;;;;17.89;31.69;101959.06;4942818;29;773;-54
2022/03/13 06:23:33;;;;;;;;;;;;;;;17.39;32.51;101953.38;4941123;29;747;-52
2022/03/13 06:25:58;;;;;;;;;;;;;;;17.08;33.05;101963.00;4940402;29;869;-54
2022/03/13 06:28:24;;;;;;;;;;;;;;;17.04;32.96;101967.31;4940838;29;909;-54
2022/03/13 06:30:50;;;;;;;;;;;;;;;17.07;32.91;101966.84;4945231;29;846;-54
2022/03/13 06:33:15;;;;;;;;;;;;;;;17.27;32.89;101972.69;4940760;29;1170;-52
2022/03/13 06:35:40;;;;;;;;;;;;;;;17.19;32.93;101964.00;4946146;29;787;-51
2022/03/13 06:38:06;;;;;;;;;;;;;;;17.54;32.10;101954.69;4940548;29;1968;-54
2022/03/13 06:40:32;;;;;;;;;;;;;;;17.78;31.65;101964.41;4940874;29;747;-54
2022/03/13 06:42:58;;;;;;;;;;;;;;;17.83;31.77;101963.66;4939480;29;982;-53
2022/03/13 06:45:23;;;;;;;;;;;;;;;17.89;31.68;101964.56;4941099;29;910;-52
2022/03/13 06:47:49;;;;;;;;;;;;;;;17.48;32.32;101964.78;4943555;29;822;-54
2022/03/13 06:50:16;;;;;;;;;;;;;;;17.20;32.78;101960.19;4940406;29;898;-52
2022/03/13 06:52:47;;;;;;;;;;;;;;;17.15;33.02;101962.84;4940744;29;778;-52
2022/03/13 06:55:13;;;;;;;;;;;;;;;17.28;32.68;101955.09;4940426;29;822;-54
2022/03/13 06:57:39;;;;;;;;;;;;;;;17.53;32.29;101964.00;4940592;29;1903;-52
2022/03/13 07:00:05;;;;;;;;;;;;;;;17.88;31.55;101965.63;4945253;29;748;-54
2022/03/13 07:02:30;;;;;;;;;;;;;;;18.35;31.00;101970.69;4946602;29;830;-53
2022/03/13 07:04:56;;;;;;;;;;;;;;;17.45;32.11;101962.53;4940434;28;869;-53
2022/03/13 07:07:21;;;;;;;;;;;;;;;17.18;32.88;101967.84;4940258;29;807;-53
2022/03/13 07:09:47;;;;;;;;;;;;;;;17.19;32.77;101969.50;4940083;29;843;-54
2022/03/13 07:12:13;;;;;;;;;;;;;;;17.10;32.97;101969.91;4941073;29;842;-52
2022/03/13 07:14:41;;;;;;;;;;;;;;;17.01;32.94;101963.19;4939953;29;822;-54
2022/03/13 07:17:07;;;;;;;;;;;;;;;17.09;32.83;101965.50;4944885;28;1972;-52
2022/03/13 07:19:32;;;;;;;;;;;;;;;17.31;32.59;101958.47;4940189;29;927;-54
2022/03/13 07:21:57;;;;;;;;;;;;;;;17.37;32.52;101966.50;4939855;29;874;-50
2022/03/13 07:24:23;;;;;;;;;;;;;;;17.54;32.10;101965.69;4939967;29;827;-53
2022/03/13 07:26:48;;;;;;;;;;;;;;;17.59;31.98;101961.09;4943796;29;874;-53
2022/03/13 07:29:14;;;;;;;;;;;;;;;17.89;31.56;101961.78;4939729;29;896;-53
2022/03/13 07:31:39;;;;;;;;;;;;;;;18.15;30.98;101960.25;4943436;29;758;-51
2022/03/13 07:34:05;;;;;;;;;;;;;;;17.90;31.39;101957.97;4939501;29;1018;-53
2022/03/13 07:36:32;;;;;;;;;;;;;;;17.07;32.79;101962.19;4939676;29;811;-54
2022/03/13 07:38:57;;;;;;;;;;;;;;;17.23;32.37;101955.00;4940354;29;1922;-53
2022/03/13 07:41:23;;;;;;;;;;;;;;;17.37;32.18;101955.50;4939831;29;751;-52
2022/03/13 07:43:49;;;;;;;;;;;;;;;17.38;32.48;101946.19;4958095;29;883;-53
2022/03/13 07:46:14;;;;;;;;;;;;;;;17.69;31.89;101954.09;4958018;29;865;-54
2022/03/13 07:48:44;;;;;;;;;;;;;;;18.01;31.50;101961.72;4958126;28;806;-53
2022/03/13 07:51:09;;;;;;;;;;;;;;;18.08;31.05;101960.44;4952575;28;846;-53
2022/03/13 07:53:36;;;;;;;;;;;;;;;17.82;31.53;101958.41;4939825;29;775;-52
2022/03/13 07:56:02;;;;;;;;;;;;;;;17.47;32.21;101951.28;4940001;29;832;-53
2022/03/13 07:58:28;;;;;;;;;;;;;;;17.44;32.16;101955.34;4939238;29;1918;-51
2022/03/13 08:00:54;;;;;;;;;;;;;;;17.23;32.67;101951.44;4944396;29;878;-51
2022/03/13 08:03:29;;;;;;;;;;;;;;;17.98;31.29;101959.47;4941295;29;926;-56
2022/03/13 08:05:55;;;;;;;;;;;;;;;17.84;31.63;101950.72;4939576;28;786;-53
2022/03/13 08:08:20;;;;;;;;;;;;;;;17.47;32.04;101946.59;4939665;29;768;-51
2022/03/13 08:10:46;;;;;;;;;;;;;;;17.06;32.48;101952.25;4939548;29;815;-54
2022/03/13 08:13:11;;;;;;;;;;;;;;;17.33;32.54;101945.28;4939267;29;870;-54
2022/03/13 08:15:38;;;;;;;;;;;;;;;17.63;31.81;101947.69;4941625;29;811;-54
2022/03/13 08:18:03;;;;;;;;;;;;;;;17.26;32.44;101942.69;4940910;28;1978;-54
2022/03/13 08:20:29;;;;;;;;;;;;;;;17.19;32.64;101951.09;4937837;29;825;-55
2022/03/13 08:22:54;;;;;;;;;;;;;;;17.16;32.77;101954.34;4939396;29;1070;-53
2022/03/13 08:25:20;;;;;;;;;;;;;;;17.37;32.41;101949.19;4939430;29;858;-54
2022/03/13 08:27:46;;;;;;;;;;;;;;;17.89;31.56;101956.28;4939536;29;791;-54
2022/03/13 08:30:12;;;;;;;;;;;;;;;18.19;30.94;101949.56;4939428;29;843;-53
2022/03/13 08:32:40;;;;;;;;;;;;;;;17.95;31.42;101950.66;4942085;29;1138;-53
2022/03/13 08:35:08;;;;;;;;;;;;;;;17.39;32.25;101955.25;4938963;29;1249;-52
2022/03/13 08:37:34;;;;;;;;;;;;;;;17.42;32.39;101952.03;4953080;29;1914;-52
2022/03/13 08:39:59;;;;;;;;;;;;;;;17.67;31.77;101951.59;4957087;28;811;-54
2022/03/13 08:42:25;;;;;;;;;;;;;;;18.11;31.16;101953.59;4948247;28;775;-53
2022/03/13 08:44:50;;;;;;;;;;;;;;;18.35;30.48;101951.41;4938710;29;893;-55
2022/03/13 08:47:16;;;;;;;;;;;;;;;17.54;32.05;101954.69;4945883;29;972;-54
2022/03/13 08:49:42;;;;;;;;;;;;;;;17.28;32.53;101951.53;4939252;29;911;-54
2022/03/13 08:52:08;;;;;;;;;;;;;;;17.04;33.07;101957.19;4938861;29;859;-54
2022/03/13 08:54:34;;;;;;;;;;;;;;;17.34;32.47;101960.69;4946007;29;1435;-54
2022/03/13 08:56:59;;;;;;;;;;;;;;;17.93;31.48;101963.00;4956396;29;1910;-53
2022/03/13 08:59:25;;;;;;;;;;;;;;;18.12;31.11;101955.28;4957402;29;848;-53
2022/03/13 09:01:54;;;;;;;;;;;;;;;18.32;30.51;101960.19;4949786;28;841;-55
2022/03/13 09:04:20;;;;;;;;;;;;;;;17.38;32.14;101948.94;4944516;28;1013;-54
2022/03/13 09:06:46;;;;;;;;;;;;;;;17.37;32.03;101954.69;4960527;29;799;-52
2022/03/13 09:09:12;;;;;;;;;;;;;;;17.37;32.35;101950.03;4942408;28;1043;-55
2022/03/13 09:11:37;;;;;;;;;;;;;;;17.40;32.03;101965.19;4942437;29;940;-54
2022/03/13 09:14:03;;;;;;;;;;;;;;;17.45;32.18;101954.28;4942173;28;1150;-53
2022/03/13 09:16:31;;;;;;;;;;;;;;;17.69;31.70;101957.66;4945670;29;917;-50
2022/03/13 09:18:59;;;;;;;;;;;;;;;17.63;31.91;101953.19;4960506;29;1902;-52
2022/03/13 09:21:24;;;;;;;;;;;;;;;17.71;31.73;101958.25;4948388;28;868;-54
2022/03/13 09:23:50;;;;;;;;;;;;;;;17.87;31.58;101955.72;4942229;29;884;-52
2022/03/13 09:26:15;;;;;;;;;;;;;;;17.75;31.37;101951.16;4952121;28;1070;-51
2022/03/13 09:28:44;;;;;;;;;;;;;;;17.63;31.86;101953.19;4960853;29;814;-50
2022/03/13 09:31:10;;;;;;;;;;;;;;;17.40;32.06;101949.53;4960386;28;1113;-53
2022/03/13 09:33:35;;;;;;;;;;;;;;;17.26;32.22;101953.69;4948780;28;1245;-52
2022/03/13 09:36:01;;;;;;;;;;;;;;;17.30;32.12;101941.13;4941912;29;830;-52
2022/03/13 09:38:27;;;;;;;;;;;;;;;17.84;31.55;101953.47;4941838;29;1914;-51
2022/03/13 09:40:53;;;;;;;;;;;;;;;17.54;32.02;101949.19;4947901;28;1058;-53
2022/03/13 09:43:19;;;;;;;;;;;;;;;17.79;31.44;101956.97;4960101;28;1232;-51
2022/03/13 09:45:46;;;;;;;;;;;;;;;18.34;30.44;101946.16;4959237;29;868;-51
2022/03/13 09:48:15;;;;;;;;;;;;;;;18.52;30.16;101958.78;4944179;29;822;-50
2022/03/13 09:50:41;;;;;;;;;;;;;;;17.32;32.14;101947.22;4941327;29;916;-53
2022/03/13 09:53:07;;;;;;;;;;;;;;;17.18;32.42;101951.34;4941488;28;766;-54
2022/03/13 09:55:32;;;;;;;;;;;;;;;17.12;32.70;101928.44;4942011;29;946;-53
2022/03/13 09:57:58;;;;;;;;;;;;;;;17.93;31.40;101940.97;4943860;29;1989;-53
2022/03/13 10:00:25;;;;;;;;;;;;;;;18.04;31.02;101939.19;4941787;29;881;-54
2022/03/13 10:02:54;;;;;;;;;;;;;;;17.75;31.38;101945.66;4945661;28;721;-51
2022/03/13 10:05:20;;;;;;;;;;;;;;;17.41;32.20;101939.38;4941640;29;894;-53
2022/03/13 10:07:48;;;;;;;;;;;;;;;17.36;32.26;101936.53;4940885;29;980;-48
2022/03/13 10:10:14;;;;;;;;;;;;;;;17.84;31.30;101943.31;4954212;28;1236;-51
2022/03/13 10:12:40;;;;;;;;;;;;;;;17.69;31.83;101937.59;4945086;28;834;-51
2022/03/13 10:15:08;;;;;;;;;;;;;;;17.41;32.23;101936.63;4950496;28;1106;-54
2022/03/13 10:17:34;;;;;;;;;;;;;;;17.41;32.14;101939.38;4942930;29;1911;-53
2022/03/13 10:20:19;;;;;;;;;;;;;;;17.68;31.84;101930.41;4941176;29;754;-54
2022/03/13 10:22:45;;;;;;;;;;;;;;;18.18;31.02;101920.38;4941158;29;871;-52
2022/03/13 10:25:13;;;;;;;;;;;;;;;17.82;31.56;101933.63;4940424;29;840;-51
2022/03/13 10:27:38;;;;;;;;;;;;;;;17.65;31.64;101928.19;4940692;29;804;-53
2022/03/13 10:30:07;;;;;;;;;;;;;;;17.28;32.12;101935.03;4940907;29;934;-51
2022/03/13 10:32:33;;;;;;;;;;;;;;;17.38;32.25;101923.38;4946631;29;969;-54
2022/03/13 10:34:58;;;;;;;;;;;;;;;17.88;31.27;101924.34;4940778;29;1126;-55
2022/03/13 10:37:37;;;;;;;;;;;;;;;17.93;30.98;101932.72;4945604;29;1967;-51
2022/03/13 10:40:22;;;;;;;;;;;;;;;17.63;31.85;101931.19;4940796;29;815;-50
2022/03/13 10:42:53;;;;;;;;;;;;;;;17.35;32.08;101918.34;4954886;29;802;-51
2022/03/13 10:45:43;;;;;;;;;;;;;;;18.03;31.18;101932.03;4959325;28;861;-53
2022/03/13 10:48:16;;;;;;;;;;;;;;;18.32;30.48;101912.56;4940253;28;858;-51
2022/03/13 10:50:44;;;;;;;;;;;;;;;17.21;32.61;101926.13;4957854;29;886;-52
2022/03/13 10:53:10;;;;;;;;;;;;;;;17.14;32.73;101925.44;4959363;28;751;-52
2022/03/13 10:55:36;;;;;;;;;;;;;;;17.33;32.44;101917.78;4958625;28;814;-54
2022/03/13 10:58:01;;;;;;;;;;;;;;;17.74;31.71;101912.88;4959456;29;1976;-52
2022/03/13 11:00:27;;;;;;;;;;;;;;;17.58;31.73;101914.59;4958795;29;919;-51
2022/03/13 11:02:53;;;;;;;;;;;;;;;17.41;32.33;101915.44;4946538;29;1121;-54
2022/03/13 11:05:18;;;;;;;;;;;;;;;17.37;32.27;101908.78;4938922;29;802;-57
2022/03/13 11:07:44;;;;;;;;;;;;;;;17.34;32.15;101912.03;4940159;29;832;-55
2022/03/13 11:10:10;;;;;;;;;;;;;;;17.52;32.16;101908.19;4939332;29;839;-53
2022/03/13 11:12:39;;;;;;;;;;;;;;;17.78;31.54;101909.41;4939973;29;850;-52
2022/03/13 11:15:05;;;;;;;;;;;;;;;17.87;31.57;101911.72;4941007;29;938;-53
2022/03/13 11:17:32;;;;;;;;;;;;;;;17.90;31.45;101903.75;4955922;29;2439;-51
2022/03/13 11:19:58;;;;;;;;;;;;;;;17.87;31.50;101915.28;4958670;28;767;-50
2022/03/13 11:22:24;;;;;;;;;;;;;;;17.60;32.05;101912.44;4958181;28;739;-52
2022/03/13 11:24:55;;;;;;;;;;;;;;;17.36;32.41;101909.88;4958186;28;826;-54
2022/03/13 11:27:20;;;;;;;;;;;;;;;17.77;31.73;101921.47;4955079;28;996;-53
2022/03/13 11:29:47;;;;;;;;;;;;;;;17.88;31.44;101905.09;4940482;29;906;-50
2022/03/13 11:32:27;;;;;;;;;;;;;;;17.69;31.75;101919.16;4945988;29;803;-52
2022/03/13 11:37:38;;;;;;;;;;;;;;;17.27;32.31;101906.69;4950927;29;1967;-53
2022/03/13 11:40:07;;;;;;;;;;;;;;;18.29;30.91;101914.72;4952321;28;978;-54
2022/03/13 11:42:48;;;;;;;;;;;;;;;17.69;31.81;101912.84;4952176;29;911;-51
2022/03/13 11:45:33;;;;;;;;;;;;;;;16.98;32.96;101910.63;4958487;28;792;-53
2022/03/13 11:48:04;;;;;;;;;;;;;;;17.23;32.83;101912.97;4941521;28;866;-52
2022/03/13 11:50:49;;;;;;;;;;;;;;;17.56;31.87;101908.53;4940074;29;771;-52
2022/03/13 11:53:25;;;;;;;;;;;;;;;17.53;32.15;101922.75;4943361;28;921;-51
2022/03/13 11:55:57;;;;;;;;;;;;;;;17.50;31.99;101924.13;4939652;29;818;-51
2022/03/13 11:58:41;;;;;;;;;;;;;;;17.47;32.29;101926.53;4939587;29;1971;-53
2022/03/13 12:01:08;;;;;;;;;;;;;;;17.68;31.91;101924.91;4942393;29;905;-53
2022/03/13 12:03:33;;;;;;;;;;;;;;;17.97;31.32;101942.13;4939442;29;909;-53
2022/03/13 12:05:59;;;;;;;;;;;;;;;18.05;31.29;101944.44;4937921;29;852;-53
2022/03/13 12:08:43;;;;;;;;;;;;;;;18.08;30.92;101932.91;4938778;29;847;-53
2022/03/13 12:11:28;;;;;;;;;;;;;;;17.69;31.81;101935.66;4937901;29;1365;-53
2022/03/13 12:13:54;;;;;;;;;;;;;;;17.51;32.08;101927.69;4953045;29;1768;-53
2022/03/13 12:16:20;;;;;;;;;;;;;;;17.54;32.30;101932.69;4956009;28;882;-52
2022/03/13 12:18:46;;;;;;;;;;;;;;;17.52;32.16;101923.88;4942347;29;1988;-53
2022/03/13 12:21:12;;;;;;;;;;;;;;;17.55;31.91;101929.69;4938068;29;831;-53
2022/03/13 12:23:39;;;;;;;;;;;;;;;17.48;32.08;101930.94;4939022;29;753;-51
2022/03/13 12:26:38;;;;;;;;;;;;;;;17.70;31.70;101931.84;4939017;29;824;-53
2022/03/13 12:29:04;;;;;;;;;;;;;;;18.20;31.09;101931.97;4930080;29;1232;-51
2022/03/13 12:31:29;;;;;;;;;;;;;;;18.32;30.63;101927.16;4944047;29;906;-53
2022/03/13 12:33:55;;;;;;;;;;;;;;;17.40;32.20;101937.69;4937528;29;1230;-54
2022/03/13 12:36:23;;;;;;;;;;;;;;;17.21;32.79;101935.19;4939337;29;815;-52
2022/03/13 12:38:53;;;;;;;;;;;;;;;17.53;32.20;101942.00;4939134;29;1985;-53
2022/03/13 12:41:18;;;;;;;;;;;;;;;17.70;31.74;101942.00;4943186;29;814;-53
2022/03/13 12:44:04;;;;;;;;;;;;;;;17.97;31.29;101946.81;4945913;29;870;-53
2022/03/13 12:46:30;;;;;;;;;;;;;;;18.11;31.11;101948.09;4945637;28;2354;-53
2022/03/13 12:48:59;;;;;;;;;;;;;;;18.11;31.17;101948.91;4942945;29;813;-53
2022/03/13 12:51:38;;;;;;;;;;;;;;;16.99;33.21;101937.84;4942596;29;903;-53
2022/03/13 12:54:07;;;;;;;;;;;;;;;17.17;32.57;101956.03;4956462;29;787;-53
2022/03/13 12:56:34;;;;;;;;;;;;;;;17.31;32.65;101956.53;4959566;28;908;-53